createdAt,value
2018-03-28T00:00:50.708Z,56.16
2018-03-28T00:03:21.683Z,56.70
2018-03-28T00:05:52.677Z,57.36
2018-03-28T00:08:23.664Z,58.19
2018-03-28T00:10:54.641Z,58.41
2018-03-28T00:13:25.637Z,58.67
2018-03-28T00:15:56.604Z,59.04
2018-03-28T00:18:27.572Z,58.97
2018-03-28T00:20:58.548Z,59.12
2018-03-28T00:23:29.565Z,59.64
2018-03-28T00:26:00.553Z,60.13
2018-03-28T00:28:31.575Z,60.30
2018-03-28T00:31:02.579Z,60.00
2018-03-28T00:33:33.568Z,60.65
2018-03-28T00:36:04.565Z,60.96
2018-03-28T00:38:35.507Z,61.51
2018-03-28T00:41:06.515Z,61.84
2018-03-28T00:43:37.512Z,61.81
2018-03-28T00:46:08.795Z,62.21
2018-03-28T00:48:39.820Z,62.11
2018-03-28T00:51:23.122Z,62.40
2018-03-28T00:53:54.165Z,62.53
2018-03-28T00:56:25.139Z,62.63
2018-03-28T00:58:56.121Z,62.80
2018-03-28T01:01:27.121Z,63.10
2018-03-28T01:03:58.145Z,63.24
2018-03-28T01:06:29.165Z,63.02
2018-03-28T01:09:00.145Z,63.01
2018-03-28T01:11:31.133Z,62.64
2018-03-28T01:14:02.096Z,62.55
2018-03-28T01:16:33.116Z,62.70
2018-03-28T01:19:04.062Z,62.86
2018-03-28T01:21:35.118Z,62.88
2018-03-28T01:24:06.071Z,62.63
2018-03-28T01:26:37.051Z,62.52
2018-03-28T01:29:08.027Z,62.62
2018-03-28T01:31:39.019Z,62.42
2018-03-28T01:34:10.004Z,62.39
2018-03-28T01:36:41.030Z,62.50
2018-03-28T01:39:12.036Z,62.65
2018-03-28T01:41:42.993Z,62.64
2018-03-28T01:44:14.023Z,62.92
2018-03-28T01:46:44.964Z,62.73
2018-03-28T01:49:15.946Z,62.55
2018-03-28T01:51:46.977Z,62.23
2018-03-28T01:54:18.031Z,62.20
2018-03-28T01:56:49.015Z,62.38
2018-03-28T01:59:26.933Z,62.26
2018-03-28T02:01:57.941Z,62.05
2018-03-28T02:04:28.919Z,62.31
2018-03-28T02:06:59.900Z,62.34
2018-03-28T02:09:30.853Z,62.06
2018-03-28T02:12:01.840Z,62.14
2018-03-28T02:14:32.806Z,62.07
2018-03-28T02:17:03.809Z,62.21
2018-03-28T02:19:34.740Z,62.15
2018-03-28T02:22:05.695Z,62.27
2018-03-28T02:24:36.690Z,62.09
2018-03-28T02:27:07.672Z,62.26
2018-03-28T02:29:38.661Z,62.46
2018-03-28T02:32:09.653Z,62.25
2018-03-28T02:34:40.671Z,62.46
2018-03-28T02:37:11.680Z,62.67
2018-03-28T02:39:42.720Z,62.76
2018-03-28T02:42:13.722Z,62.83
2018-03-28T02:44:44.747Z,62.92
2018-03-28T02:47:15.755Z,62.74
2018-03-28T02:49:46.753Z,62.66
2018-03-28T02:52:17.762Z,62.77
2018-03-28T02:54:48.766Z,62.84
2018-03-28T02:57:19.762Z,63.32
2018-03-28T02:59:50.767Z,63.20
2018-03-28T03:02:21.765Z,62.97
2018-03-28T03:04:52.773Z,63.03
2018-03-28T03:07:23.799Z,62.99
2018-03-28T03:09:54.844Z,63.02
2018-03-28T03:12:25.825Z,63.08
2018-03-28T03:14:56.804Z,62.99
2018-03-28T03:17:27.789Z,63.20
2018-03-28T03:19:58.818Z,63.51
2018-03-28T03:22:29.809Z,63.64
2018-03-28T03:25:00.810Z,63.59
2018-03-28T03:27:31.829Z,63.41
2018-03-28T03:30:02.858Z,63.64
2018-03-28T03:32:33.935Z,63.72
2018-03-28T03:35:04.984Z,63.67
2018-03-28T03:37:35.989Z,63.89
2018-03-28T03:40:06.945Z,64.12
2018-03-28T03:42:37.940Z,64.08
2018-03-28T03:45:08.912Z,63.74
2018-03-28T03:47:39.908Z,63.93
2018-03-28T03:50:10.887Z,64.46
2018-03-28T03:52:41.883Z,64.43
2018-03-28T03:55:12.881Z,65.37
2018-03-28T03:57:43.865Z,65.46
2018-03-28T04:00:14.916Z,65.53
2018-03-28T04:02:45.913Z,65.65
2018-03-28T04:05:16.916Z,65.62
2018-03-28T04:07:47.921Z,65.47
2018-03-28T04:10:18.961Z,65.31
2018-03-28T04:12:49.974Z,65.37
2018-03-28T04:15:20.985Z,65.68
2018-03-28T04:17:51.958Z,65.72
2018-03-28T04:20:22.931Z,66.14
2018-03-28T04:22:53.989Z,66.08
2018-03-28T04:25:24.965Z,66.01
2018-03-28T04:27:55.977Z,66.13
2018-03-28T04:30:27.017Z,66.19
2018-03-28T04:32:58.011Z,66.41
2018-03-28T04:35:29.021Z,66.18
2018-03-28T04:38:00.008Z,66.61
2018-03-28T04:40:31.048Z,66.82
2018-03-28T04:43:02.071Z,67.10
2018-03-28T04:45:33.123Z,67.10
2018-03-28T04:48:04.157Z,67.29
2018-03-28T04:50:35.195Z,67.18
2018-03-28T04:53:06.175Z,67.49
2018-03-28T04:55:37.227Z,67.72
2018-03-28T04:58:08.273Z,67.93
2018-03-28T05:00:39.314Z,68.00
2018-03-28T05:03:10.295Z,68.03
2018-03-28T05:05:41.287Z,68.08
2018-03-28T05:08:12.298Z,68.16
2018-03-28T05:10:43.299Z,68.34
2018-03-28T05:13:14.280Z,68.65
2018-03-28T05:15:45.293Z,68.92
2018-03-28T05:18:16.251Z,68.97
2018-03-28T05:20:47.281Z,68.75
2018-03-28T05:23:18.264Z,68.82
2018-03-28T05:25:49.259Z,68.79
2018-03-28T05:28:20.232Z,68.57
2018-03-28T05:30:51.210Z,68.52
2018-03-28T05:33:22.203Z,68.54
2018-03-28T05:35:53.155Z,68.41
2018-03-28T05:38:24.141Z,68.70
2018-03-28T05:40:55.107Z,68.62
2018-03-28T05:43:26.085Z,68.63
2018-03-28T05:45:57.052Z,68.67
2018-03-28T05:48:28.051Z,68.25
2018-03-28T05:50:59.061Z,68.10
2018-03-28T05:53:30.065Z,68.42
2018-03-28T05:56:01.040Z,68.31
2018-03-28T05:58:32.004Z,68.39
2018-03-28T06:01:02.994Z,68.48
2018-03-28T06:03:33.983Z,68.33
2018-03-28T06:06:05.018Z,68.64
2018-03-28T06:08:35.971Z,68.59
2018-03-28T06:11:07.003Z,68.70
2018-03-28T06:13:38.009Z,68.87
2018-03-28T06:16:09.029Z,68.72
2018-03-28T06:18:40.050Z,68.40
2018-03-28T06:21:11.038Z,68.08
2018-03-28T06:23:42.121Z,67.98
2018-03-28T06:26:13.109Z,67.92
2018-03-28T06:28:44.133Z,68.16
2018-03-28T06:31:15.104Z,68.44
2018-03-28T06:33:46.062Z,68.54
2018-03-28T06:36:17.079Z,68.61
2018-03-28T06:38:48.072Z,68.40
2018-03-28T06:41:19.071Z,67.86
2018-03-28T06:43:50.085Z,67.60
2018-03-28T06:46:21.076Z,67.42
2018-03-28T06:48:52.074Z,66.69
2018-03-28T06:51:23.101Z,65.97
2018-03-28T06:53:54.101Z,65.14
2018-03-28T06:56:25.074Z,64.28
2018-03-28T06:58:56.085Z,63.45
2018-03-28T07:01:27.051Z,63.33
2018-03-28T07:03:58.047Z,63.01
2018-03-28T07:06:29.030Z,63.50
2018-03-28T07:09:00.007Z,63.85
2018-03-28T07:11:30.999Z,64.37
2018-03-28T07:14:01.953Z,64.29
2018-03-28T07:16:32.957Z,63.92
2018-03-28T07:19:04.005Z,63.42
2018-03-28T07:21:35.046Z,62.93
2018-03-28T07:24:06.173Z,62.71
2018-03-28T07:26:37.196Z,62.50
2018-03-28T07:29:08.204Z,63.08
2018-03-28T07:31:39.179Z,62.96
2018-03-28T07:34:10.174Z,63.01
2018-03-28T07:36:41.141Z,63.27
2018-03-28T07:39:12.141Z,63.16
2018-03-28T07:41:43.155Z,62.92
2018-03-28T07:44:14.184Z,62.84
2018-03-28T07:46:45.144Z,62.88
2018-03-28T07:49:16.109Z,62.69
2018-03-28T07:51:47.106Z,61.96
2018-03-28T07:54:18.105Z,61.09
2018-03-28T07:56:49.103Z,59.56
2018-03-28T07:59:20.086Z,58.55
2018-03-28T08:01:51.075Z,57.62
2018-03-28T08:04:22.077Z,56.44
2018-03-28T08:06:53.107Z,55.33
2018-03-28T08:09:24.116Z,54.54
2018-03-28T08:11:55.110Z,54.12
2018-03-28T08:14:26.093Z,54.66
2018-03-28T08:16:57.105Z,55.38
2018-03-28T08:19:28.121Z,56.35
2018-03-28T08:21:59.115Z,56.84
2018-03-28T08:24:30.065Z,57.37
2018-03-28T08:27:01.020Z,58.18
2018-03-28T08:29:32.028Z,58.36
2018-03-28T08:32:02.992Z,58.25
2018-03-28T08:34:34.026Z,57.33
2018-03-28T08:37:04.993Z,56.75
2018-03-28T08:39:35.972Z,56.49
2018-03-28T08:42:06.983Z,56.26
2018-03-28T08:44:37.999Z,56.58
2018-03-28T08:47:08.979Z,56.69
2018-03-28T08:49:39.952Z,57.33
2018-03-28T08:52:10.899Z,58.51
2018-03-28T08:54:41.941Z,58.69
2018-03-28T08:57:12.902Z,58.48
2018-03-28T08:59:43.901Z,57.55
2018-03-28T09:02:14.868Z,56.94
2018-03-28T09:04:45.872Z,56.44
2018-03-28T09:07:16.876Z,56.21
2018-03-28T09:09:47.890Z,55.82
2018-03-28T09:12:18.828Z,55.51
2018-03-28T09:14:49.858Z,55.36
2018-03-28T09:17:20.872Z,54.71
2018-03-28T09:19:51.853Z,53.74
2018-03-28T09:22:22.872Z,51.03
2018-03-28T09:24:53.854Z,46.44
2018-03-28T09:27:24.869Z,41.92
2018-03-28T09:29:55.872Z,37.85
2018-03-28T09:32:26.851Z,35.62
2018-03-28T09:34:57.915Z,31.19
2018-03-28T09:37:28.875Z,26.82
2018-03-28T09:39:59.884Z,24.32
2018-03-28T09:42:30.818Z,21.26
2018-03-28T09:45:01.795Z,23.13
2018-03-28T09:47:32.756Z,25.25
2018-03-28T09:50:03.792Z,29.18
2018-03-28T09:52:34.805Z,31.52
2018-03-28T09:55:05.808Z,33.15
2018-03-28T09:57:36.787Z,34.09
2018-03-28T10:00:07.814Z,32.74
2018-03-28T10:02:42.743Z,30.58
2018-03-28T10:05:13.773Z,30.30
2018-03-28T10:07:44.809Z,29.66
2018-03-28T10:10:15.824Z,31.47
2018-03-28T10:12:46.874Z,33.30
2018-03-28T10:15:17.896Z,35.46
2018-03-28T10:17:48.880Z,37.38
2018-03-28T10:20:19.854Z,39.01
2018-03-28T10:22:50.890Z,40.16
2018-03-28T10:25:21.865Z,41.21
2018-03-28T10:27:52.883Z,41.59
2018-03-28T10:30:23.875Z,41.05
2018-03-28T10:32:54.852Z,40.69
2018-03-28T10:35:25.885Z,39.67
2018-03-28T10:37:56.835Z,38.62
2018-03-28T10:40:27.835Z,37.93
2018-03-28T10:42:58.817Z,36.87
2018-03-28T10:45:29.846Z,35.25
2018-03-28T10:48:00.829Z,31.79
2018-03-28T10:50:31.803Z,30.13
2018-03-28T10:53:02.786Z,30.39
2018-03-28T10:55:33.761Z,31.22
2018-03-28T10:58:04.755Z,32.52
2018-03-28T11:00:35.746Z,34.01
2018-03-28T11:03:06.777Z,35.17
2018-03-28T11:05:37.772Z,35.98
2018-03-28T11:08:08.724Z,35.97
2018-03-28T11:10:39.741Z,36.08
2018-03-28T11:13:10.768Z,36.75
2018-03-28T11:15:41.749Z,37.31
2018-03-28T11:18:12.794Z,38.44
2018-03-28T11:20:43.771Z,38.70
2018-03-28T11:23:14.770Z,38.32
2018-03-28T11:25:45.751Z,36.86
2018-03-28T11:28:16.676Z,36.80
2018-03-28T11:30:47.637Z,36.81
2018-03-28T11:33:18.643Z,37.33
2018-03-28T11:35:49.664Z,35.52
2018-03-28T11:38:20.648Z,34.29
2018-03-28T11:40:51.640Z,32.29
2018-03-28T11:43:22.658Z,31.43
2018-03-28T11:45:53.625Z,31.53
2018-03-28T11:48:24.603Z,30.21
2018-03-28T11:50:55.578Z,29.62
2018-03-28T11:53:26.646Z,29.72
2018-03-28T11:55:57.653Z,28.95
2018-03-28T11:58:28.669Z,30.44
2018-03-28T12:00:59.683Z,31.50
2018-03-28T12:03:30.702Z,32.23
2018-03-28T12:06:01.688Z,33.16
2018-03-28T12:08:32.670Z,33.31
2018-03-28T12:11:03.688Z,33.20
2018-03-28T12:13:34.674Z,32.53
2018-03-28T12:16:05.670Z,31.84
2018-03-28T12:18:36.616Z,31.98
2018-03-28T12:21:07.617Z,32.46
2018-03-28T12:23:38.619Z,32.92
2018-03-28T12:26:09.625Z,32.82
2018-03-28T12:28:40.640Z,32.31
2018-03-28T12:31:11.612Z,31.98
2018-03-28T12:33:42.592Z,31.86
2018-03-28T12:36:13.583Z,31.25
2018-03-28T12:38:44.554Z,30.92
2018-03-28T12:41:15.537Z,30.30
2018-03-28T12:43:46.538Z,29.85
2018-03-28T12:46:17.475Z,29.76
2018-03-28T12:48:48.486Z,30.17
2018-03-28T12:51:19.513Z,31.38
2018-03-28T12:53:50.450Z,31.60
2018-03-28T12:56:21.463Z,32.02
2018-03-28T12:58:52.417Z,31.82
2018-03-28T13:01:23.385Z,30.99
2018-03-28T13:03:54.377Z,30.26
2018-03-28T13:06:25.365Z,29.76
2018-03-28T13:08:56.373Z,30.28
2018-03-28T13:11:27.389Z,30.87
2018-03-28T13:13:58.345Z,31.55
2018-03-28T13:16:29.323Z,32.04
2018-03-28T13:19:00.387Z,32.42
2018-03-28T13:21:31.350Z,32.92
2018-03-28T13:24:02.351Z,33.14
2018-03-28T13:26:33.356Z,33.88
2018-03-28T13:29:04.371Z,34.57
2018-03-28T13:31:35.426Z,34.89
2018-03-28T13:34:06.403Z,35.53
2018-03-28T13:36:37.369Z,36.20
2018-03-28T13:39:08.445Z,36.44
2018-03-28T13:41:39.441Z,36.85
2018-03-28T13:44:10.476Z,36.66
2018-03-28T13:46:41.443Z,36.66
2018-03-28T13:49:12.418Z,36.84
2018-03-28T13:51:43.375Z,37.53
2018-03-28T13:54:14.371Z,38.00
2018-03-28T13:56:45.385Z,37.73
2018-03-28T13:59:16.345Z,37.35
2018-03-28T14:01:47.352Z,36.79
2018-03-28T14:04:18.290Z,35.88
2018-03-28T14:06:49.277Z,34.79
2018-03-28T14:09:20.232Z,34.65
2018-03-28T14:11:51.262Z,34.08
2018-03-28T14:14:22.222Z,32.40
2018-03-28T14:16:53.187Z,30.94
2018-03-28T14:19:24.167Z,30.53
2018-03-28T14:21:55.194Z,31.09
2018-03-28T14:24:26.245Z,31.87
2018-03-28T14:26:57.214Z,32.48
2018-03-28T14:29:28.198Z,33.09
2018-03-28T14:31:59.152Z,33.83
2018-03-28T14:34:30.192Z,34.45
2018-03-28T14:37:01.136Z,35.05
2018-03-28T14:39:32.133Z,35.87
2018-03-28T14:42:03.161Z,37.02
2018-03-28T14:44:34.128Z,37.53
2018-03-28T14:47:05.119Z,37.17
2018-03-28T14:49:36.091Z,36.89
2018-03-28T14:52:07.088Z,36.84
2018-03-28T14:54:38.065Z,36.94
2018-03-28T14:57:09.069Z,37.11
2018-03-28T14:59:40.023Z,37.58
2018-03-28T15:02:11.029Z,37.77
2018-03-28T15:04:42.031Z,38.48
2018-03-28T15:07:13.036Z,39.30
2018-03-28T15:09:44.016Z,39.83
2018-03-28T15:12:15.020Z,40.56
2018-03-28T15:14:45.982Z,41.10
2018-03-28T15:17:16.947Z,42.04
2018-03-28T15:19:47.981Z,42.60
2018-03-28T15:22:18.963Z,43.48
2018-03-28T15:24:49.935Z,44.03
2018-03-28T15:27:20.949Z,44.42
2018-03-28T15:29:51.946Z,44.63
2018-03-28T15:32:22.957Z,45.17
2018-03-28T15:34:53.955Z,45.71
2018-03-28T15:37:24.963Z,45.73
2018-03-28T15:39:55.923Z,46.10
2018-03-28T15:42:26.969Z,46.52
2018-03-28T15:44:57.952Z,47.75
2018-03-28T15:47:28.949Z,48.29
2018-03-28T15:49:59.981Z,49.02
2018-03-28T15:52:30.996Z,50.39
2018-03-28T15:55:02.028Z,51.81
2018-03-28T15:57:33.035Z,52.41
2018-03-28T16:00:04.067Z,52.16
2018-03-28T16:02:35.073Z,52.53
2018-03-28T16:05:06.094Z,53.12
2018-03-28T16:07:37.125Z,54.22
2018-03-28T16:10:08.098Z,54.66
2018-03-28T16:12:39.108Z,55.15
2018-03-28T16:15:10.121Z,55.66
2018-03-28T16:17:41.117Z,56.37
2018-03-28T16:20:12.100Z,56.61
2018-03-28T16:22:43.105Z,56.68
2018-03-28T16:25:14.102Z,57.10
2018-03-28T16:27:45.147Z,57.70
2018-03-28T16:30:16.097Z,57.23
2018-03-28T16:32:47.049Z,57.52
2018-03-28T16:35:18.050Z,58.40
2018-03-28T16:37:49.040Z,58.13
2018-03-28T16:40:20.057Z,58.35
2018-03-28T16:42:51.061Z,59.20
2018-03-28T16:45:22.067Z,60.02
2018-03-28T16:47:53.023Z,60.64
2018-03-28T16:50:24.022Z,61.11
2018-03-28T16:52:55.168Z,61.70
2018-03-28T16:55:26.232Z,62.92
2018-03-28T16:57:57.233Z,62.70
2018-03-28T17:00:28.285Z,62.79
2018-03-28T17:02:59.267Z,63.21
2018-03-28T17:05:30.279Z,63.27
2018-03-28T17:08:01.282Z,63.22
2018-03-28T17:10:32.328Z,63.77
2018-03-28T17:13:03.293Z,64.02
2018-03-28T17:15:34.273Z,64.43
2018-03-28T17:18:05.291Z,64.51
2018-03-28T17:20:36.291Z,64.98
2018-03-28T17:23:07.276Z,65.18
2018-03-28T17:25:39.075Z,65.15
2018-03-28T17:28:10.089Z,65.43
2018-03-28T17:30:41.093Z,65.78
2018-03-28T17:33:12.163Z,66.11
2018-03-28T17:35:43.161Z,66.58
2018-03-28T17:38:14.178Z,66.60
2018-03-28T17:40:45.205Z,66.81
2018-03-28T17:43:16.200Z,66.84
2018-03-28T17:45:47.165Z,67.21
2018-03-28T17:48:18.152Z,67.62
2018-03-28T17:50:49.150Z,67.91
2018-03-28T17:53:20.123Z,67.70
2018-03-28T17:55:51.137Z,67.74
2018-03-28T17:58:22.167Z,67.78
2018-03-28T18:00:53.133Z,67.81
2018-03-28T18:03:24.162Z,67.61
2018-03-28T18:05:55.136Z,67.92
2018-03-28T18:08:26.092Z,67.95
2018-03-28T18:10:57.083Z,68.08
2018-03-28T18:13:28.044Z,68.10
2018-03-28T18:15:59.004Z,68.08
2018-03-28T18:18:30.037Z,67.93
2018-03-28T18:21:01.042Z,67.85
2018-03-28T18:23:32.004Z,68.10
2018-03-28T18:26:03.008Z,68.03
2018-03-28T18:28:33.985Z,67.79
2018-03-28T18:31:04.958Z,67.95
2018-03-28T18:33:35.973Z,67.77
2018-03-28T18:36:07.010Z,67.90
2018-03-28T18:38:38.054Z,68.63
2018-03-28T18:41:09.067Z,68.43
2018-03-28T18:43:40.065Z,68.82
2018-03-28T18:46:11.097Z,68.89
2018-03-28T18:48:42.054Z,69.00
2018-03-28T18:51:13.913Z,68.59
2018-03-28T18:53:44.923Z,68.67
2018-03-28T18:56:15.936Z,69.10
2018-03-28T18:58:46.895Z,68.87
2018-03-28T19:01:17.871Z,68.93
2018-03-28T19:03:48.871Z,68.96
2018-03-28T19:06:19.844Z,69.25
2018-03-28T19:08:50.865Z,69.35
2018-03-28T19:11:21.904Z,69.33
2018-03-28T19:13:52.923Z,69.27
2018-03-28T19:16:23.933Z,69.47
2018-03-28T19:18:54.965Z,69.44
2018-03-28T19:21:25.984Z,69.36
2018-03-28T19:23:56.930Z,68.91
2018-03-28T19:26:27.958Z,68.54
2018-03-28T19:28:58.956Z,68.49
2018-03-28T19:31:29.935Z,68.42
2018-03-28T19:34:00.927Z,68.40
2018-03-28T19:36:31.909Z,68.43
2018-03-28T19:39:02.897Z,68.42
2018-03-28T19:41:33.886Z,68.35
2018-03-28T19:44:04.827Z,68.51
2018-03-28T19:46:35.795Z,68.70
2018-03-28T19:49:06.772Z,68.75
2018-03-28T19:51:37.771Z,68.75
2018-03-28T19:54:08.735Z,68.74
2018-03-28T19:56:39.741Z,68.68
2018-03-28T19:59:10.716Z,68.79
2018-03-28T20:01:41.687Z,68.95
2018-03-28T20:04:12.670Z,68.90
2018-03-28T20:06:43.645Z,68.79
2018-03-28T20:09:14.637Z,68.98
2018-03-28T20:11:45.644Z,68.78
2018-03-28T20:14:16.631Z,68.57
2018-03-28T20:16:47.575Z,68.39
2018-03-28T20:19:18.588Z,68.27
2018-03-28T20:21:49.548Z,68.32
2018-03-28T20:24:20.591Z,68.53
2018-03-28T20:26:51.561Z,69.02
2018-03-28T20:29:22.555Z,68.57
2018-03-28T20:31:53.595Z,68.78
2018-03-28T20:34:24.641Z,69.07
2018-03-28T20:36:55.638Z,69.70
2018-03-28T20:39:26.665Z,69.72
2018-03-28T20:41:57.627Z,69.84
2018-03-28T20:44:28.658Z,69.99
2018-03-28T20:46:59.591Z,70.25
2018-03-28T20:49:30.538Z,70.34
2018-03-28T20:52:01.497Z,70.90
2018-03-28T20:54:32.485Z,70.80
2018-03-28T20:57:03.548Z,71.31
2018-03-28T20:59:34.557Z,70.92
2018-03-28T21:02:05.556Z,70.18
2018-03-28T21:04:36.547Z,70.08
2018-03-28T21:07:07.487Z,69.82
2018-03-28T21:09:38.479Z,69.96
2018-03-28T21:12:09.488Z,69.98
2018-03-28T21:14:40.506Z,70.14
2018-03-28T21:17:11.533Z,69.69
2018-03-28T21:19:42.559Z,68.40
2018-03-28T21:22:13.534Z,67.53
2018-03-28T21:24:44.511Z,66.92
2018-03-28T21:27:15.480Z,66.76
2018-03-28T21:29:46.534Z,66.88
2018-03-28T21:32:17.521Z,66.55
2018-03-28T21:34:48.545Z,66.68
2018-03-28T21:37:19.567Z,66.15
2018-03-28T21:39:50.592Z,66.33
2018-03-28T21:42:21.597Z,66.10
2018-03-28T21:44:52.583Z,66.20
2018-03-28T21:47:23.583Z,66.44
2018-03-28T21:49:54.552Z,66.45
2018-03-28T21:52:25.535Z,66.44
2018-03-28T21:54:56.520Z,66.25
2018-03-28T21:57:27.534Z,66.14
2018-03-28T21:59:58.509Z,66.05
2018-03-28T22:02:29.502Z,66.59
2018-03-28T22:05:00.475Z,66.67
2018-03-28T22:07:31.458Z,66.96
2018-03-28T22:10:02.418Z,67.10
2018-03-28T22:12:33.384Z,67.25
2018-03-28T22:15:04.408Z,67.76
2018-03-28T22:17:35.448Z,67.96
2018-03-28T22:20:06.423Z,68.20
2018-03-28T22:22:37.400Z,68.19
2018-03-28T22:25:08.359Z,68.83
2018-03-28T22:27:39.337Z,68.98
2018-03-28T22:30:10.409Z,68.73
2018-03-28T22:32:41.422Z,68.63
2018-03-28T22:35:12.428Z,68.45
2018-03-28T22:37:43.398Z,68.51
2018-03-28T22:40:14.378Z,68.51
2018-03-28T22:42:45.356Z,68.83
2018-03-28T22:45:16.356Z,68.87
2018-03-28T22:47:47.390Z,68.96
2018-03-28T22:50:18.399Z,69.29
2018-03-28T22:52:49.357Z,69.46
2018-03-28T22:55:20.320Z,69.42
2018-03-28T22:57:51.319Z,69.42
2018-03-28T23:00:22.288Z,69.23
2018-03-28T23:02:53.284Z,69.34
2018-03-28T23:05:24.278Z,69.60
2018-03-28T23:07:55.256Z,69.96
2018-03-28T23:10:26.236Z,70.16
2018-03-28T23:12:57.191Z,70.62
2018-03-28T23:15:28.217Z,70.91
2018-03-28T23:17:59.268Z,70.75
2018-03-28T23:20:30.292Z,70.80
2018-03-28T23:23:01.312Z,70.38
2018-03-28T23:25:32.318Z,70.19
2018-03-28T23:28:03.297Z,70.30
2018-03-28T23:30:34.310Z,70.28
2018-03-28T23:33:05.309Z,70.26
2018-03-28T23:35:36.348Z,70.21
2018-03-28T23:40:53.741Z,70.20
2018-03-28T23:43:24.740Z,70.12
2018-03-28T23:45:55.746Z,70.01
2018-03-28T23:48:26.753Z,69.97
2018-03-28T23:50:57.789Z,69.95
2018-03-28T23:53:28.773Z,70.05
2018-03-28T23:55:59.761Z,70.13
2018-03-28T23:58:30.743Z,69.98
